CheckWX is a tool to help pilots better visualize weather data.  It is not intended as a substitute for an official pre-flight weather briefing.

08:12:50 UTC

KDNN METAR
Dalton Municipal Airport
Dalton, Georgia, USA
Current

13 mins ago

KDNN 220800Z AUTO 34009KT 10SM OVC008 09/08 A3014 RMK AO2
Observed
Feb-22 @ 08:00 UTC
Wind
  • 340° at 9 KTS
Visibility
10 SM
Flight Rules
IFR
Cloud Levels
  • Overcast at 800' AGL
Temperature
C / 48°F
Dewpoint
C / 46°F
Humidity
94%
Altimeter
30.14" Hg
Pressure
1020.62 hPa
Previous

38 mins ago

KDNN 220735Z AUTO 34008KT 10SM OVC008 09/08 A3014 RMK AO2
Observed
Feb-22 @ 07:35 UTC
Wind
  • 340° at 8 KTS
Visibility
10 SM
Flight Rules
IFR
Cloud Levels
  • Overcast at 800' AGL
Temperature
C / 48°F
Dewpoint
C / 46°F
Humidity
94%
Altimeter
30.14" Hg
Pressure
1020.62 hPa
Previous

58 mins ago

KDNN 220715Z AUTO 34009KT 10SM OVC008 09/08 A3015 RMK AO2
Observed
Feb-22 @ 07:15 UTC
Wind
  • 340° at 9 KTS
Visibility
10 SM
Flight Rules
IFR
Cloud Levels
  • Overcast at 800' AGL
Temperature
C / 48°F
Dewpoint
C / 46°F
Humidity
94%
Altimeter
30.15" Hg
Pressure
1021.02 hPa